Time;durP1;ratioP1;P1;durP2;ratioP2;P2;SDS_P1;SDS_P2;PMS_P1;PMS_P2;Temp;Humidity;BMP_temperature;BMP_pressure;BME280_temperature;BME280_humidity;BME280_pressure;Samples;Min_cycle;Max_cycle;Signal;HPM_P1;HPM_P2
2022/04/04 00:01:51;;;;;;;4.85;2.28;;;6.30;89.80;;;;;;5049202;28;20032;-79
2022/04/04 00:04:16;;;;;;;5.75;2.00;;;6.30;90.00;;;;;;5050887;28;20021;-80
2022/04/04 00:06:42;;;;;;;2.33;1.40;;;6.30;90.10;;;;;;5050563;28;20033;-79
2022/04/04 00:09:08;;;;;;;3.95;2.13;;;6.30;90.10;;;;;;5050301;28;20025;-79
2022/04/04 00:11:34;;;;;;;3.97;1.88;;;6.20;90.30;;;;;;5051702;28;20354;-79
2022/04/04 00:13:59;;;;;;;5.22;2.42;;;6.30;90.70;;;;;;5052266;28;20085;-79
2022/04/04 00:16:25;;;;;;;6.45;2.22;;;6.30;90.40;;;;;;5050811;28;20025;-81
2022/04/04 00:18:50;;;;;;;6.60;2.60;;;6.10;90.50;;;;;;5050420;28;20484;-80
2022/04/04 00:21:16;;;;;;;5.60;2.28;;;6.10;90.80;;;;;;5050366;28;20021;-80
2022/04/04 00:23:42;;;;;;;2.63;1.90;;;6.20;90.70;;;;;;5050538;28;20382;-80
2022/04/04 00:26:07;;;;;;;3.63;2.30;;;6.20;90.60;;;;;;5050391;28;20021;-79
2022/04/04 00:28:33;;;;;;;4.00;1.95;;;6.30;90.70;;;;;;5050558;28;20047;-80
2022/04/04 00:30:58;;;;;;;6.18;3.30;;;6.20;90.70;;;;;;5050205;28;20477;-80
2022/04/04 00:33:24;;;;;;;4.85;2.58;;;6.20;90.80;;;;;;5050119;28;20040;-81
2022/04/04 00:35:49;;;;;;;3.63;2.30;;;6.20;90.70;;;;;;5051165;28;20025;-81
2022/04/04 00:38:16;;;;;;;3.40;2.17;;;6.10;90.90;;;;;;5053394;28;20022;-81
2022/04/04 00:40:43;;;;;;;5.07;2.05;;;6.00;91.10;;;;;;5054856;28;20070;-81
2022/04/04 00:43:09;;;;;;;3.00;2.20;;;6.10;91.30;;;;;;5055576;28;20020;-81
2022/04/04 00:45:35;;;;;;;5.10;2.50;;;6.00;91.00;;;;;;5049964;28;20021;-81
2022/04/04 00:48:01;;;;;;;3.60;2.47;;;6.00;91.30;;;;;;5049846;28;20052;-81
2022/04/04 00:50:26;;;;;;;5.40;2.30;;;6.10;91.10;;;;;;5050246;28;20425;-81
2022/04/04 00:52:52;;;;;;;7.10;3.95;;;6.10;90.90;;;;;;5053727;28;20032;-80
2022/04/04 00:55:19;;;;;;;5.68;2.45;;;6.10;91.00;;;;;;5053100;28;20514;-81
2022/04/04 00:57:45;;;;;;;4.32;2.60;;;6.00;91.10;;;;;;5055411;28;20033;-80
2022/04/04 01:00:11;;;;;;;4.50;2.55;;;5.90;91.50;;;;;;5070679;28;20144;-80
2022/04/04 01:02:39;;;;;;;3.42;2.42;;;6.00;91.40;;;;;;5068499;28;20025;-81
2022/04/04 01:05:05;;;;;;;7.82;3.10;;;6.00;91.20;;;;;;5072490;28;20036;-80
2022/04/04 01:07:32;;;;;;;4.55;2.58;;;6.10;91.20;;;;;;5074469;28;20033;-82
2022/04/04 01:09:57;;;;;;;6.03;2.78;;;6.10;91.20;;;;;;5056487;28;20112;-80
2022/04/04 01:12:23;;;;;;;3.03;2.30;;;6.10;91.20;;;;;;5054040;28;20109;-79
2022/04/04 01:14:49;;;;;;;6.03;3.05;;;6.00;91.30;;;;;;5053197;28;20395;-79
2022/04/04 01:17:16;;;;;;;8.18;2.75;;;6.00;91.20;;;;;;5053184;28;20108;-79
2022/04/04 01:19:42;;;;;;;5.97;2.58;;;6.10;91.10;;;;;;5053393;28;20534;-79
2022/04/04 01:22:10;;;;;;;6.70;2.70;;;6.10;91.10;;;;;;5053944;28;20281;-81
2022/04/04 01:24:38;;;;;;;;;;;6.10;91.00;;;;;;5053503;28;20021;-81
2022/04/04 01:27:05;;;;;;;5.25;2.20;;;6.20;91.10;;;;;;5051765;28;19955;-81
2022/04/04 01:29:31;;;;;;;6.07;3.00;;;6.10;91.00;;;;;;5053332;28;20450;-80
2022/04/04 01:31:57;;;;;;;4.30;2.60;;;6.10;91.10;;;;;;5052854;28;20068;-80
2022/04/04 01:34:23;;;;;;;4.25;2.58;;;6.10;91.10;;;;;;5053264;28;20451;-81
2022/04/04 01:36:49;;;;;;;4.38;2.67;;;6.10;91.10;;;;;;5068153;28;20039;-79
2022/04/04 01:39:15;;;;;;;6.35;2.60;;;6.10;91.10;;;;;;5073454;28;20024;-79
2022/04/04 01:41:41;;;;;;;6.53;2.70;;;6.10;91.00;;;;;;5072973;28;20032;-80
2022/04/04 01:44:07;;;;;;;5.10;2.50;;;6.10;91.00;;;;;;5073100;28;20362;-81
2022/04/04 01:46:32;;;;;;;4.97;2.63;;;6.10;90.90;;;;;;5071750;28;20640;-80
2022/04/04 01:49:01;;;;;;;5.95;2.65;;;6.20;91.00;;;;;;5071514;28;20040;-79
2022/04/04 01:51:28;;;;;;;5.38;2.92;;;6.10;91.00;;;;;;5072115;28;20029;-80
2022/04/04 01:53:54;;;;;;;3.63;2.30;;;6.00;91.20;;;;;;5072543;28;20596;-80
2022/04/04 01:56:21;;;;;;;4.47;2.85;;;6.00;91.20;;;;;;5071289;28;20362;-79
2022/04/04 01:58:46;;;;;;;4.22;2.25;;;6.00;91.20;;;;;;5072293;28;20412;-80
2022/04/04 02:01:18;;;;;;;11.98;3.00;;;6.10;91.20;;;;;;5071393;28;20028;-78
2022/04/04 02:03:47;;;;;;;6.13;3.00;;;6.10;91.20;;;;;;5071286;28;20028;-80
2022/04/04 02:06:13;;;;;;;4.53;2.67;;;6.00;91.20;;;;;;5072584;28;20036;-79
2022/04/04 02:08:42;;;;;;;3.25;2.33;;;5.90;91.50;;;;;;5072609;28;20366;-79
2022/04/04 02:11:07;;;;;;;6.75;2.97;;;5.90;91.60;;;;;;5072282;28;20071;-80
2022/04/04 02:13:33;;;;;;;4.88;2.88;;;5.90;91.60;;;;;;5072743;28;20060;-79
2022/04/04 02:16:03;;;;;;;6.13;2.65;;;5.90;91.60;;;;;;5072373;28;20035;-79
2022/04/04 02:18:29;;;;;;;6.28;3.10;;;5.80;91.80;;;;;;5063139;28;20036;-78
2022/04/04 02:20:55;;;;;;;7.25;2.88;;;5.90;91.80;;;;;;5072323;28;20105;-78
2022/04/04 02:23:21;;;;;;;5.45;2.72;;;6.00;91.90;;;;;;5071043;28;20083;-79
2022/04/04 02:25:48;;;;;;;4.40;2.65;;;5.90;91.80;;;;;;5072170;28;20245;-79
2022/04/04 02:28:15;;;;;;;5.07;2.60;;;5.90;91.80;;;;;;5072513;28;20066;-79
2022/04/04 02:30:41;;;;;;;10.00;2.80;;;5.90;91.70;;;;;;5072174;28;20035;-79
2022/04/04 02:33:08;;;;;;;4.53;2.50;;;5.90;91.70;;;;;;5072082;28;20481;-79
2022/04/04 02:35:33;;;;;;;6.05;3.00;;;5.90;91.80;;;;;;5071974;28;20032;-79
2022/04/04 02:37:59;;;;;;;5.43;2.78;;;5.80;91.80;;;;;;5071612;28;20508;-78
2022/04/04 02:40:25;;;;;;;6.85;3.10;;;5.80;91.90;;;;;;5070872;28;20028;-78
2022/04/04 02:42:52;;;;;;;9.25;3.15;;;5.70;92.00;;;;;;5071660;28;20090;-80
2022/04/04 02:45:18;;;;;;;7.00;3.13;;;5.60;92.10;;;;;;5071544;28;20404;-78
2022/04/04 02:47:44;;;;;;;4.13;3.08;;;5.60;92.20;;;;;;5071126;28;20063;-78
2022/04/04 02:50:11;;;;;;;6.75;3.85;;;5.70;92.10;;;;;;5071349;28;20028;-79
2022/04/04 02:52:37;;;;;;;8.27;3.50;;;5.60;92.20;;;;;;5071338;28;20450;-79
2022/04/04 02:56:28;;;;;;;5.97;3.13;;;5.60;92.20;;;;;;5072673;28;20043;-81
2022/04/04 02:57:49;;;;;;;9.13;3.90;;;5.60;92.30;;;;;;5071414;28;20028;-79
2022/04/04 03:00:18;;;;;;;5.47;3.35;;;5.60;92.50;;;;;;5071110;28;20123;-80
2022/04/04 03:02:45;;;;;;;8.90;3.50;;;5.60;92.40;;;;;;5071113;28;20461;-79
2022/04/04 03:05:11;;;;;;;7.00;3.42;;;5.50;92.30;;;;;;5071173;28;20028;-80
2022/04/04 03:07:36;;;;;;;6.90;3.85;;;5.60;92.30;;;;;;5071400;28;20051;-79
2022/04/04 03:10:03;;;;;;;6.05;3.55;;;5.60;92.40;;;;;;5071962;28;20461;-80
2022/04/04 03:12:29;;;;;;;9.45;4.07;;;5.60;92.40;;;;;;5071110;28;20044;-80
2022/04/04 03:14:55;;;;;;;13.80;4.28;;;5.60;92.30;;;;;;5069985;28;20037;-80
2022/04/04 03:17:21;;;;;;;8.45;4.25;;;5.50;92.40;;;;;;5071266;28;20086;-80
2022/04/04 03:19:47;;;;;;;8.32;4.97;;;5.50;92.50;;;;;;5070423;28;20085;-80
2022/04/04 03:22:13;;;;;;;8.30;4.75;;;5.50;92.50;;;;;;5071334;28;20447;-80
2022/04/04 03:24:39;;;;;;;9.00;4.65;;;5.50;92.50;;;;;;5071029;28;20028;-81
2022/04/04 03:27:04;;;;;;;12.27;5.55;;;5.50;92.40;;;;;;5069790;28;20123;-79
2022/04/04 03:29:30;;;;;;;8.52;5.07;;;5.50;92.50;;;;;;5071123;28;20028;-79
2022/04/04 03:31:56;;;;;;;9.32;4.93;;;5.50;92.60;;;;;;5070681;28;20091;-80
2022/04/04 03:34:22;;;;;;;10.48;5.60;;;5.50;92.50;;;;;;5071217;28;20028;-81
2022/04/04 03:36:48;;;;;;;7.80;5.20;;;5.50;92.40;;;;;;5070634;28;20562;-79
2022/04/04 03:39:16;;;;;;;9.43;5.40;;;5.50;92.40;;;;;;5070763;28;20120;-78
2022/04/04 03:41:43;;;;;;;;;;;5.40;92.30;;;;;;5071400;28;20467;-79
2022/04/04 03:44:09;;;;;;;8.70;5.20;;;5.50;92.30;;;;;;5070853;28;19908;-80
2022/04/04 03:46:35;;;;;;;11.63;5.55;;;5.40;92.40;;;;;;5070854;28;20350;-81
2022/04/04 03:49:00;;;;;;;5.72;4.53;;;5.30;92.40;;;;;;5070580;28;20032;-80
2022/04/04 03:51:26;;;;;;;12.80;5.40;;;5.30;92.40;;;;;;5070607;28;20347;-81
2022/04/04 03:53:52;;;;;;;5.97;4.63;;;5.30;92.40;;;;;;5069463;28;20123;-81
2022/04/04 03:56:17;;;;;;;7.22;5.18;;;5.40;92.50;;;;;;5070710;28;20465;-81
2022/04/04 03:58:43;;;;;;;11.55;5.70;;;5.40;92.30;;;;;;5069397;28;20044;-81
2022/04/04 04:01:09;;;;;;;7.25;4.82;;;5.40;92.30;;;;;;5071213;28;20108;-80
2022/04/04 04:03:36;;;;;;;13.85;5.30;;;5.50;92.30;;;;;;5069434;28;20033;-78
2022/04/04 04:06:16;;;;;;;12.20;5.28;;;5.50;92.20;;;;;;5070612;28;20556;-80
2022/04/04 04:08:43;;;;;;;12.55;4.90;;;5.40;92.30;;;;;;5069204;28;20392;-80
2022/04/04 04:11:10;;;;;;;9.55;4.75;;;5.40;92.30;;;;;;5070528;28;20033;-80
2022/04/04 04:13:37;;;;;;;9.15;5.45;;;5.40;92.30;;;;;;5070831;28;20020;-80
2022/04/04 04:16:09;;;;;;;7.40;5.20;;;5.40;92.20;;;;;;5069298;28;20060;-80
2022/04/04 04:18:35;;;;;;;12.98;5.45;;;5.40;92.30;;;;;;5069453;28;20116;-80
2022/04/04 04:21:04;;;;;;;7.95;5.07;;;5.40;92.20;;;;;;5070448;28;20029;-79
2022/04/04 04:23:30;;;;;;;9.65;6.40;;;5.40;92.30;;;;;;5069157;28;20040;-81
2022/04/04 04:25:56;;;;;;;8.75;5.80;;;5.30;92.10;;;;;;5074241;28;20031;-82
2022/04/04 04:28:22;;;;;;;16.08;6.57;;;5.40;92.10;;;;;;5074565;28;20028;-81
2022/04/04 04:30:48;;;;;;;10.32;6.38;;;5.30;92.10;;;;;;5072955;28;20028;-81
2022/04/04 04:33:14;;;;;;;12.38;6.47;;;5.30;92.10;;;;;;5073940;28;20029;-81
2022/04/04 04:35:40;;;;;;;11.82;6.53;;;5.30;92.20;;;;;;5072921;28;20115;-82
2022/04/04 04:38:06;;;;;;;11.05;6.20;;;5.30;92.20;;;;;;5073843;28;20028;-81
2022/04/04 04:40:32;;;;;;;8.77;6.03;;;5.20;92.10;;;;;;5075605;28;20514;-80
2022/04/04 04:42:58;;;;;;;11.43;7.30;;;5.30;92.10;;;;;;5073893;28;20032;-81
2022/04/04 04:45:24;;;;;;;13.23;8.25;;;5.40;92.20;;;;;;5073851;28;20029;-80
2022/04/04 04:47:50;;;;;;;13.98;7.85;;;5.20;92.10;;;;;;5073432;28;20085;-80
2022/04/04 04:50:18;;;;;;;14.68;7.88;;;5.30;92.20;;;;;;5072389;28;20049;-80
2022/04/04 04:52:46;;;;;;;16.67;8.52;;;5.30;92.10;;;;;;5073606;28;20442;-80
2022/04/04 04:55:13;;;;;;;14.65;8.15;;;5.20;92.10;;;;;;5074059;28;20020;-81
2022/04/04 04:57:39;;;;;;;11.15;7.57;;;5.30;92.00;;;;;;5073515;28;20043;-81
2022/04/04 05:00:08;;;;;;;14.63;8.52;;;5.30;92.00;;;;;;5072210;28;20064;-80
2022/04/04 05:02:34;;;;;;;13.77;7.47;;;5.40;91.90;;;;;;5072199;28;20111;-81
2022/04/04 05:05:00;;;;;;;17.25;8.10;;;5.40;91.80;;;;;;5073286;28;20028;-81
2022/04/04 05:07:27;;;;;;;13.85;7.75;;;5.40;91.70;;;;;;5073640;28;20021;-81
2022/04/04 05:09:53;;;;;;;17.48;7.07;;;5.40;91.50;;;;;;5072345;28;20431;-80
2022/04/04 05:12:18;;;;;;;16.42;7.20;;;5.40;91.50;;;;;;5073260;28;20040;-81
2022/04/04 05:14:44;;;;;;;14.32;6.88;;;5.40;91.40;;;;;;5073103;28;20107;-80
2022/04/04 05:17:09;;;;;;;13.75;7.25;;;5.40;91.30;;;;;;5073136;28;20024;-79
2022/04/04 05:19:36;;;;;;;8.68;6.00;;;5.50;91.20;;;;;;5073487;28;20028;-82
2022/04/04 05:22:01;;;;;;;10.15;5.60;;;5.40;91.20;;;;;;5073321;28;20068;-82
2022/04/04 05:24:27;;;;;;;10.35;5.75;;;5.50;90.90;;;;;;5073329;28;20423;-80
2022/04/04 05:26:54;;;;;;;11.73;6.38;;;5.50;91.00;;;;;;5071962;28;20033;-81
2022/04/04 05:29:20;;;;;;;12.02;6.00;;;5.40;90.80;;;;;;5073161;28;20358;-81
2022/04/04 05:31:45;;;;;;;14.73;6.20;;;5.50;90.80;;;;;;5071820;28;20082;-79
2022/04/04 05:34:11;;;;;;;13.38;6.20;;;5.50;90.70;;;;;;5072415;28;20021;-80
2022/04/04 05:36:37;;;;;;;10.90;5.90;;;5.60;90.60;;;;;;5072394;28;20029;-80
2022/04/04 05:39:05;;;;;;;15.20;7.07;;;5.60;90.30;;;;;;5073351;28;20423;-81
2022/04/04 05:41:31;;;;;;;9.65;6.10;;;5.50;90.20;;;;;;5073151;28;20029;-82
2022/04/04 05:43:57;;;;;;;7.88;5.35;;;5.60;90.10;;;;;;5073070;28;20088;-85
2022/04/04 05:46:23;;;;;;;11.90;6.35;;;5.70;90.10;;;;;;5073174;28;20097;-85
2022/04/04 05:48:49;;;;;;;11.90;6.63;;;5.60;90.00;;;;;;5072383;28;20025;-86
2022/04/04 05:51:17;;;;;;;13.00;6.32;;;5.60;89.90;;;;;;5073000;28;20044;-87
2022/04/04 05:53:43;;;;;;;;;;;5.80;89.40;;;;;;5072919;28;20021;-83
2022/04/04 05:56:09;;;;;;;10.63;6.80;;;5.70;89.10;;;;;;5072461;28;20379;-81
2022/04/04 05:58:36;;;;;;;15.55;7.25;;;5.80;89.10;;;;;;5072773;28;20115;-81
2022/04/04 06:01:04;;;;;;;10.70;5.82;;;5.80;88.70;;;;;;5072597;28;20394;-82
2022/04/04 06:03:30;;;;;;;11.00;6.45;;;5.80;87.90;;;;;;5071453;28;20162;-79
2022/04/04 06:05:56;;;;;;;11.23;6.45;;;5.80;87.90;;;;;;5072948;28;20115;-83
2022/04/04 06:08:22;;;;;;;13.10;7.05;;;5.90;88.00;;;;;;5073006;28;20056;-88
2022/04/04 06:10:48;;;;;;;11.85;6.22;;;5.80;87.50;;;;;;5073234;28;20049;-85
2022/04/04 06:13:18;;;;;;;14.30;6.45;;;5.90;87.50;;;;;;5073548;28;20032;-84
2022/04/04 06:15:44;;;;;;;12.30;6.05;;;5.90;87.20;;;;;;5073404;28;20037;-87
2022/04/04 06:18:12;;;;;;;13.95;7.30;;;6.00;87.10;;;;;;5072445;28;20036;-80
2022/04/04 06:20:39;;;;;;;14.05;6.57;;;6.10;87.40;;;;;;5070741;28;20029;-79
2022/04/04 06:23:05;;;;;;;16.50;6.50;;;6.10;87.30;;;;;;5072571;28;20086;-80
2022/04/04 06:25:31;;;;;;;15.68;6.50;;;6.10;86.80;;;;;;5072781;28;20029;-80
2022/04/04 06:27:57;;;;;;;11.13;6.65;;;6.20;86.80;;;;;;5070609;28;20033;-79
2022/04/04 06:30:23;;;;;;;11.70;6.05;;;6.10;86.10;;;;;;5071914;28;20036;-75
2022/04/04 06:32:49;;;;;;;10.48;5.70;;;6.20;86.30;;;;;;5071507;28;20029;-73
2022/04/04 06:35:16;;;;;;;11.80;6.60;;;6.20;85.90;;;;;;5070449;28;20046;-75
2022/04/04 06:37:42;;;;;;;10.23;5.97;;;6.20;85.40;;;;;;5071403;28;20115;-79
2022/04/04 06:40:10;;;;;;;11.30;5.65;;;6.20;85.00;;;;;;5071822;28;20027;-76
2022/04/04 06:42:37;;;;;;;11.23;5.87;;;6.30;84.80;;;;;;5070850;28;20028;-73
2022/04/04 06:45:04;;;;;;;16.05;8.25;;;6.40;84.40;;;;;;5059537;28;20041;-74
2022/04/04 06:47:30;;;;;;;11.63;6.18;;;6.50;84.10;;;;;;5050043;28;20048;-75
2022/04/04 06:49:56;;;;;;;9.60;5.75;;;6.60;84.30;;;;;;5051644;28;20017;-75
2022/04/04 06:52:22;;;;;;;11.90;6.30;;;6.60;83.90;;;;;;5051868;28;20035;-74
2022/04/04 06:54:48;;;;;;;14.90;6.45;;;6.60;83.70;;;;;;5049736;28;20495;-75
2022/04/04 06:57:15;;;;;;;10.77;5.55;;;6.60;83.00;;;;;;5049853;28;20105;-77
2022/04/04 06:59:42;;;;;;;11.02;5.32;;;6.70;83.20;;;;;;5051284;28;20033;-74
2022/04/04 07:02:08;;;;;;;11.35;5.65;;;6.70;82.70;;;;;;5049931;28;20037;-84
2022/04/04 07:04:34;;;;;;;17.30;6.32;;;6.70;82.60;;;;;;5053395;28;20493;-84
2022/04/04 07:07:00;;;;;;;10.13;5.38;;;6.70;82.40;;;;;;5051398;28;20044;-80
2022/04/04 07:09:26;;;;;;;9.07;5.50;;;6.70;81.60;;;;;;5052184;28;20135;-78
2022/04/04 07:11:51;;;;;;;19.00;6.20;;;6.70;81.10;;;;;;5051152;28;20484;-80
2022/04/04 07:14:20;;;;;;;10.90;5.75;;;6.70;81.10;;;;;;5054436;28;20028;-86
2022/04/04 07:16:46;;;;;;;8.70;4.82;;;6.70;80.90;;;;;;5054159;28;20079;-84
2022/04/04 07:19:15;;;;;;;9.30;5.25;;;6.80;80.80;;;;;;5054665;28;20032;-86
2022/04/04 07:21:42;;;;;;;10.50;5.25;;;6.80;80.50;;;;;;5054468;28;20035;-75
2022/04/04 07:24:08;;;;;;;8.27;4.78;;;6.80;80.10;;;;;;5051392;28;20033;-77
2022/04/04 07:26:33;;;;;;;11.60;5.05;;;6.80;80.00;;;;;;5051773;28;20388;-76
2022/04/04 07:28:59;;;;;;;11.07;4.78;;;6.80;79.60;;;;;;5051717;28;20538;-77
2022/04/04 07:31:25;;;;;;;8.32;4.82;;;6.90;79.70;;;;;;5050980;28;20033;-76
2022/04/04 07:33:51;;;;;;;7.18;4.70;;;6.90;79.30;;;;;;5052164;28;20090;-79
2022/04/04 07:36:17;;;;;;;10.57;4.43;;;6.90;78.80;;;;;;5050842;28;20112;-79
2022/04/04 07:38:43;;;;;;;12.50;4.53;;;6.90;78.30;;;;;;5050876;28;20036;-78
2022/04/04 07:41:08;;;;;;;11.35;5.15;;;6.90;78.30;;;;;;5050395;28;20029;-77
2022/04/04 07:43:34;;;;;;;10.48;5.05;;;6.90;78.10;;;;;;5050838;28;20020;-78
2022/04/04 07:46:00;;;;;;;12.77;4.60;;;7.10;78.20;;;;;;5050124;28;20581;-78
2022/04/04 07:48:26;;;;;;;9.82;4.75;;;7.10;77.50;;;;;;5049245;28;20055;-77
2022/04/04 07:50:52;;;;;;;9.55;4.10;;;7.10;77.00;;;;;;5049070;28;20490;-80
2022/04/04 07:53:18;;;;;;;8.27;4.35;;;7.10;76.50;;;;;;5050085;28;20043;-76
2022/04/04 07:55:43;;;;;;;9.63;5.38;;;7.10;75.70;;;;;;5050130;28;20091;-75
2022/04/04 07:58:09;;;;;;;7.50;3.70;;;7.10;75.70;;;;;;5050786;28;20029;-76
2022/04/04 08:00:35;;;;;;;8.45;4.18;;;7.20;76.00;;;;;;5049574;28;20037;-77
2022/04/04 08:03:01;;;;;;;15.63;5.00;;;7.20;75.30;;;;;;5048794;28;20482;-74
2022/04/04 08:05:26;;;;;;;9.88;3.78;;;7.20;75.20;;;;;;5050117;28;20617;-74
2022/04/04 08:07:52;;;;;;;6.47;3.90;;;7.20;74.30;;;;;;5048722;28;20094;-75
2022/04/04 08:10:18;;;;;;;12.30;4.75;;;7.20;74.30;;;;;;5049272;28;20064;-77
2022/04/04 08:12:46;;;;;;;8.85;4.30;;;7.30;74.30;;;;;;5050184;28;20155;-74
2022/04/04 08:15:12;;;;;;;10.55;4.38;;;7.30;73.90;;;;;;5049819;28;20029;-75
2022/04/04 08:17:38;;;;;;;7.22;4.20;;;7.20;73.50;;;;;;5049669;28;20532;-75
2022/04/04 08:20:04;;;;;;;9.40;4.35;;;7.30;73.50;;;;;;5049751;28;20107;-76
2022/04/04 08:22:30;;;;;;;11.07;4.25;;;7.30;73.70;;;;;;5050089;28;20033;-75
2022/04/04 08:24:56;;;;;;;9.35;4.18;;;7.10;73.40;;;;;;5049801;28;20102;-75
2022/04/04 08:27:24;;;;;;;6.57;4.60;;;7.20;73.70;;;;;;5048549;28;20475;-75
2022/04/04 08:29:51;;;;;;;8.05;4.13;;;7.30;73.60;;;;;;5049852;28;20033;-76
2022/04/04 08:32:17;;;;;;;11.50;4.28;;;7.30;73.90;;;;;;5049756;28;20025;-73
2022/04/04 08:34:43;;;;;;;6.40;4.05;;;7.20;74.00;;;;;;5049256;28;20105;-74
2022/04/04 08:37:08;;;;;;;7.50;4.93;;;7.30;74.00;;;;;;5048858;28;20075;-73
2022/04/04 08:39:34;;;;;;;10.27;4.15;;;7.30;73.90;;;;;;5049568;28;20033;-81
2022/04/04 08:42:02;;;;;;;6.97;4.32;;;7.40;74.00;;;;;;5049637;28;20033;-80
2022/04/04 08:44:28;;;;;;;8.70;4.35;;;7.30;74.00;;;;;;5049916;28;20040;-77
2022/04/04 08:46:53;;;;;;;14.05;4.72;;;7.50;75.50;;;;;;5049096;28;20084;-75
2022/04/04 08:49:19;;;;;;;8.60;4.30;;;7.50;74.10;;;;;;5050352;28;20444;-74
2022/04/04 08:51:48;;;;;;;11.05;4.13;;;7.50;74.20;;;;;;5049448;28;20379;-74
2022/04/04 08:54:13;;;;;;;6.57;4.00;;;7.50;74.50;;;;;;5049406;28;20030;-75
2022/04/04 08:56:39;;;;;;;13.15;5.60;;;7.50;74.10;;;;;;5049304;28;20040;-76
2022/04/04 08:59:05;;;;;;;8.63;4.45;;;7.50;74.60;;;;;;5049455;28;20026;-80
2022/04/04 09:01:31;;;;;;;9.73;4.80;;;7.50;75.00;;;;;;5049652;28;20021;-78
2022/04/04 09:03:59;;;;;;;7.72;4.78;;;7.50;76.10;;;;;;5049508;28;20505;-76
2022/04/04 09:06:28;;;;;;;12.90;5.22;;;7.50;76.60;;;;;;5049465;28;20350;-75
2022/04/04 09:08:55;;;;;;;12.00;5.00;;;7.40;78.40;;;;;;5049348;28;20045;-76
2022/04/04 09:11:21;;;;;;;9.30;5.33;;;7.40;79.60;;;;;;5051155;28;20407;-84
2022/04/04 09:14:03;;;;;;;7.18;4.75;;;7.30;80.00;;;;;;5052899;28;20269;-76
2022/04/04 09:16:28;;;;;;;10.55;4.80;;;7.20;81.70;;;;;;5053105;28;20017;-76
2022/04/04 09:18:54;;;;;;;9.77;4.78;;;7.20;82.90;;;;;;5052616;28;20033;-76
2022/04/04 09:21:20;;;;;;;9.98;5.25;;;7.30;82.40;;;;;;5052742;28;20104;-78
2022/04/04 09:23:55;;;;;;;12.02;5.40;;;7.20;83.00;;;;;;5052924;28;20527;-76
2022/04/04 09:26:40;;;;;;;11.00;5.15;;;7.30;84.20;;;;;;5052776;28;20053;-83
2022/04/04 09:29:07;;;;;;;9.23;5.18;;;7.30;84.60;;;;;;5051518;28;20575;-72
2022/04/04 09:31:34;;;;;;;12.77;5.70;;;7.30;84.60;;;;;;5052973;28;20489;-77
2022/04/04 09:34:04;;;;;;;12.18;5.75;;;7.20;84.90;;;;;;5052324;28;20040;-75
2022/04/04 09:36:31;;;;;;;9.10;5.60;;;7.10;85.80;;;;;;5052669;28;20048;-75
2022/04/04 09:39:00;;;;;;;8.63;5.50;;;7.10;88.40;;;;;;5051617;28;20072;-75
2022/04/04 09:41:27;;;;;;;8.05;5.15;;;7.10;88.50;;;;;;5052442;28;20102;-78
2022/04/04 09:43:59;;;;;;;9.85;4.88;;;7.30;88.30;;;;;;5052581;28;20028;-74
2022/04/04 09:46:34;;;;;;;10.50;5.97;;;7.30;89.30;;;;;;5052540;28;20044;-78
2022/04/04 09:49:01;;;;;;;9.32;5.70;;;7.40;89.20;;;;;;5050972;28;20029;-76
2022/04/04 09:51:42;;;;;;;11.18;5.97;;;7.30;88.50;;;;;;5052602;28;20029;-76
2022/04/04 09:54:14;;;;;;;14.30;7.15;;;7.30;89.00;;;;;;5052175;28;20124;-77
2022/04/04 09:56:40;;;;;;;11.85;5.93;;;7.30;89.70;;;;;;5052438;28;20040;-76
2022/04/04 09:59:06;;;;;;;11.40;6.40;;;7.20;89.70;;;;;;5051375;28;20112;-78
2022/04/04 10:01:33;;;;;;;15.43;6.32;;;7.30;89.40;;;;;;5052352;28;20100;-75
2022/04/04 10:04:02;;;;;;;14.20;6.53;;;7.40;89.60;;;;;;5052166;28;20040;-76
2022/04/04 10:06:29;;;;;;;9.95;6.00;;;7.40;89.20;;;;;;5050796;28;20037;-75
2022/04/04 10:08:59;;;;;;;11.60;5.90;;;7.40;89.70;;;;;;5050827;28;20029;-75
2022/04/04 10:11:26;;;;;;;11.45;5.90;;;7.40;89.10;;;;;;5051830;28;20463;-75
2022/04/04 10:13:52;;;;;;;9.88;6.15;;;7.40;89.10;;;;;;5050454;28;20029;-75
2022/04/04 10:16:18;;;;;;;12.63;6.20;;;7.40;89.30;;;;;;5052222;28;20116;-75
2022/04/04 10:18:45;;;;;;;13.65;6.22;;;7.50;89.80;;;;;;5051626;28;20147;-74
2022/04/04 10:21:11;;;;;;;13.10;6.47;;;7.40;89.10;;;;;;5050808;28;20210;-75
2022/04/04 10:23:43;;;;;;;16.38;7.00;;;7.40;89.30;;;;;;5051182;28;20036;-75
2022/04/04 10:26:12;;;;;;;16.45;7.78;;;7.40;89.70;;;;;;5051939;28;20036;-77
2022/04/04 10:28:38;;;;;;;12.43;6.90;;;7.40;89.70;;;;;;5051138;28;20032;-74
2022/04/04 10:31:15;;;;;;;10.60;6.47;;;7.40;89.70;;;;;;5052437;28;20032;-76
2022/04/04 10:33:42;;;;;;;11.43;6.35;;;7.40;89.40;;;;;;5051726;28;20029;-77
2022/04/04 10:36:10;;;;;;;13.38;6.78;;;7.40;90.30;;;;;;5051254;28;20033;-74
2022/04/04 10:38:55;;;;;;;13.30;6.97;;;7.50;90.20;;;;;;5050404;28;20362;-77
2022/04/04 10:41:25;;;;;;;10.75;6.40;;;7.40;90.20;;;;;;5051340;28;20044;-74
2022/04/04 10:43:52;;;;;;;13.40;7.00;;;7.40;90.40;;;;;;5051444;28;20028;-75
2022/04/04 10:46:19;;;;;;;10.73;6.60;;;7.40;90.40;;;;;;5051710;28;20056;-75
2022/04/04 10:48:48;;;;;;;14.00;6.20;;;7.40;90.40;;;;;;5051320;28;20052;-76
2022/04/04 10:51:28;;;;;;;17.63;7.05;;;7.40;90.70;;;;;;5051088;28;20036;-75
2022/04/04 10:54:05;;;;;;;16.70;7.78;;;7.30;90.80;;;;;;5051045;28;20036;-78
2022/04/04 10:56:41;;;;;;;13.40;7.40;;;7.30;91.20;;;;;;5051157;28;20052;-74
2022/04/04 10:59:15;;;;;;;11.05;6.50;;;7.30;91.60;;;;;;5049926;28;20111;-76
2022/04/04 11:01:43;;;;;;;14.90;7.30;;;7.30;91.70;;;;;;5049359;28;20364;-79
2022/04/04 11:04:27;;;;;;;14.95;7.45;;;7.20;92.00;;;;;;5051429;28;20025;-80
2022/04/04 11:09:52;;;;;;;13.38;8.20;;;7.10;92.50;;;;;;5050816;28;20048;-75
2022/04/04 11:12:22;;;;;;;13.55;7.15;;;7.10;93.00;;;;;;5050582;28;20092;-76
2022/04/04 11:14:57;;;;;;;11.13;7.43;;;7.30;93.30;;;;;;5050408;28;20071;-74
2022/04/04 11:17:23;;;;;;;16.17;7.80;;;7.10;93.20;;;;;;5050497;28;20068;-73
2022/04/04 11:20:33;;;;;;;12.23;6.88;;;7.00;93.40;;;;;;5050826;28;20276;-75
2022/04/04 11:23:08;;;;;;;11.10;7.25;;;7.10;93.70;;;;;;5050572;28;20033;-77
2022/04/04 11:25:37;;;;;;;11.25;6.75;;;7.10;93.80;;;;;;5051096;28;20040;-75
2022/04/04 11:28:06;;;;;;;13.20;7.57;;;7.00;93.70;;;;;;5050585;28;20144;-76
2022/04/04 11:30:32;;;;;;;14.57;7.18;;;7.00;94.20;;;;;;5050772;28;20120;-75
2022/04/04 11:32:59;;;;;;;15.93;7.85;;;6.90;94.00;;;;;;5050047;28;20142;-76
2022/04/04 11:35:27;;;;;;;14.18;7.60;;;6.80;94.60;;;;;;5049980;28;20029;-75
2022/04/04 11:38:07;;;;;;;11.05;8.05;;;6.90;94.60;;;;;;5049080;28;20044;-74
2022/04/04 11:40:37;;;;;;;20.02;7.68;;;6.70;94.90;;;;;;5050740;28;20029;-74
2022/04/04 11:43:08;;;;;;;11.38;7.15;;;6.80;95.00;;;;;;5050378;28;20123;-73
2022/04/04 11:45:36;;;;;;;12.88;7.10;;;6.70;95.10;;;;;;5050141;28;20107;-75
2022/04/04 11:48:18;;;;;;;12.27;7.43;;;6.60;95.40;;;;;;5050067;28;20466;-74
2022/04/04 11:50:44;;;;;;;11.93;7.10;;;6.60;95.80;;;;;;5050012;28;20033;-74
2022/04/04 11:53:12;;;;;;;13.88;7.30;;;6.60;95.70;;;;;;5050473;28;20052;-75
2022/04/04 11:55:41;;;;;;;11.30;7.10;;;6.60;95.90;;;;;;5050118;28;20040;-74
2022/04/04 11:58:15;;;;;;;14.07;7.25;;;6.70;96.00;;;;;;5049561;28;20047;-74
2022/04/04 12:00:44;;;;;;;12.98;7.60;;;6.60;96.20;;;;;;5049069;28;20049;-75
2022/04/04 12:03:11;;;;;;;16.63;7.28;;;6.70;96.10;;;;;;5049742;28;20037;-73
2022/04/04 12:05:39;;;;;;;15.48;7.60;;;6.60;96.10;;;;;;5049334;28;20071;-74
2022/04/04 12:08:06;;;;;;;9.38;6.57;;;6.60;96.40;;;;;;5050061;28;20120;-76
2022/04/04 12:10:33;;;;;;;11.15;7.00;;;6.60;96.30;;;;;;5050836;28;20028;-74
2022/04/04 12:13:05;;;;;;;9.32;6.13;;;6.70;96.30;;;;;;5050103;28;20033;-77
2022/04/04 12:15:37;;;;;;;11.57;6.60;;;6.70;96.40;;;;;;5050271;28;20057;-79
2022/04/04 12:18:05;;;;;;;10.05;6.55;;;6.80;96.20;;;;;;5048896;28;20419;-77
2022/04/04 12:20:37;;;;;;;6.95;5.25;;;6.70;96.40;;;;;;5049731;28;20109;-76
2022/04/04 12:26:00;;;;;;;9.77;5.95;;;6.80;96.10;;;;;;5050456;28;20675;-77
2022/04/04 12:28:34;;;;;;;8.68;5.82;;;6.90;95.90;;;;;;5050274;28;20041;-76
2022/04/04 12:31:12;;;;;;;8.25;5.55;;;6.80;96.00;;;;;;5050051;28;20122;-76
2022/04/04 12:33:38;;;;;;;6.28;4.93;;;6.70;96.10;;;;;;5049846;28;20450;-74
2022/04/04 12:36:04;;;;;;;11.10;5.55;;;6.60;96.10;;;;;;5049501;28;20052;-75
2022/04/04 12:38:31;;;;;;;10.25;6.03;;;6.80;96.10;;;;;;5050027;28;20021;-77
2022/04/04 12:41:16;;;;;;;9.27;6.10;;;6.70;96.20;;;;;;5049706;28;22095;-78
2022/04/04 12:43:47;;;;;;;9.95;5.40;;;6.80;96.20;;;;;;5049630;28;20013;-76
2022/04/04 12:46:27;;;;;;;10.07;6.40;;;6.80;96.20;;;;;;5051602;28;20087;-75
2022/04/04 12:48:55;;;;;;;7.60;5.60;;;6.90;96.30;;;;;;5053073;28;20029;-74
2022/04/04 12:51:26;;;;;;;7.80;5.65;;;6.80;96.20;;;;;;5053339;28;20047;-75
2022/04/04 12:53:53;;;;;;;11.18;6.68;;;6.70;96.30;;;;;;5053778;28;20033;-77
2022/04/04 12:56:19;;;;;;;10.90;5.87;;;6.70;96.30;;;;;;5052063;28;20431;-75
2022/04/04 12:59:06;;;;;;;7.20;5.53;;;6.70;96.70;;;;;;5053422;28;20029;-75
2022/04/04 13:01:35;;;;;;;8.23;5.72;;;6.70;96.60;;;;;;5054081;28;20043;-85